Terminal Aerodrome Forecast
Issued by NWS Wilmington, OH

Current Version | Previous Version | Graphics & Text | Print | Product List | Glossary On
Versions: 1 2 3 4 5 6 7 8 9 10 11 12 13 14 15 16 17 18 19 20 21 22
603
FTUS41 KILN 230536
TAFCMH
TAF
KCMH 230536Z 2306/2406 16007KT P6SM SCT040
     FM230800 19004KT 3SM BR OVC020
     FM231500 22005KT P6SM BKN020
     FM232100 22005KT P6SM VCSH OVC050
     FM240000 VRB03KT P6SM BKN035
     FM240300 VRB03KT P6SM BKN019=

USA.gov is the U.S. government's official web portal to all federal, state and local government web resources and services.